Time;durP1;ratioP1;P1;durP2;ratioP2;P2;SDS_P1;SDS_P2;PMS_P1;PMS_P2;Temp;Humidity;BMP_temperature;BMP_pressure;BME280_temperature;BME280_humidity;BME280_pressure;Samples;Min_cycle;Max_cycle;Signal;HPM_P1;HPM_P2
2023/11/21 00:02:20;;;;;;;;;;;;;;;;;;2198303;59;2288;-24
2023/11/21 00:04:52;;;;;;;;;;;;;;;;;;2198536;59;1715;-25
2023/11/21 00:07:23;;;;;;;;;;;;;;;;;;2196708;59;2259;-25
2023/11/21 00:09:55;;;;;;;;;;;;;;;;;;2200199;59;2180;-25
2023/11/21 00:12:27;;;;;;;;;;;;;;;;;;2196636;67;2018;-25
2023/11/21 00:14:57;;;;;;;;;;;;;;;;;;2201653;67;1657;-25
2023/11/21 00:17:28;;;;;;;;;;;;;;;;;;2199748;67;2364;-25
2023/11/21 00:19:58;;;;;;;;;;;;;;;;;;2201294;67;2333;-25
2023/11/21 00:22:28;;;;;;;;;;;;;;;;;;2199552;59;1697;-25
2023/11/21 00:24:58;;;;;;;;;;;;;;;;;;2200888;59;1860;-25
2023/11/21 00:27:29;;;;;;;;;;;;;;;;;;2200121;59;1731;-25
2023/11/21 00:29:59;;;;;;;;;;;;;;;;;;2200305;59;2342;-25
2023/11/21 00:32:29;;;;;;;;;;;;;;;;;;2199939;59;2246;-25
2023/11/21 00:35:00;;;;;;;;;;;;;;;;;;2200629;59;2415;-25
2023/11/21 00:40:06;;;;;;;;;;;;;;;;;;2205027;59;2413;-20
2023/11/21 00:42:36;;;;;;;;;;;;;;;;;;2205017;59;2012;-21
2023/11/21 00:45:07;;;;;;;;;;;;;;;;;;2208631;59;2064;-19
2023/11/21 00:47:38;;;;;;;;;;;;;;;;;;2205108;59;2012;-19
2023/11/21 00:50:09;;;;;;;;;;;;;;;;;;2207322;59;1843;-19
2023/11/21 00:52:40;;;;;;;;;;;;;;;;;;2206095;67;1817;-19
2023/11/21 00:55:11;;;;;;;;;;;;;;;;;;2206757;59;1785;-20
2023/11/21 00:57:42;;;;;;;;;;;;;;;;;;2207119;59;2113;-20
2023/11/21 01:00:17;;;;;;;;;;;;;;;;;;2206658;67;1961;-19
2023/11/21 01:02:48;;;;;;;;;;;;;;;;;;2205659;59;2640;-20
2023/11/21 01:05:19;;;;;;;;;;;;;;;;;;2204785;67;2315;-22
2023/11/21 01:07:50;;;;;;;;;;;;;;;;;;2206173;67;3377;-22
2023/11/21 01:10:20;;;;;;;;;;;;;;;;;;2206975;67;1961;-22
2023/11/21 01:12:51;;;;;;;;;;;;;;;;;;2207120;67;2106;-22
2023/11/21 01:15:21;;;;;;;;;;;;;;;;;;2206812;67;1925;-22
2023/11/21 01:17:52;;;;;;;;;;;;;;;;;;2206972;67;2151;-22
2023/11/21 01:20:22;;;;;;;;;;;;;;;;;;2207024;59;1936;-22
2023/11/21 01:22:53;;;;;;;;;;;;;;;;;;2207743;59;1875;-22
2023/11/21 01:25:23;;;;;;;;;;;;;;;;;;2206251;59;1916;-22
2023/11/21 01:27:54;;;;;;;;;;;;;;;;;;2207174;59;2027;-23
2023/11/21 01:30:25;;;;;;;;;;;;;;;;;;2207137;67;2453;-23
2023/11/21 01:32:56;;;;;;;;;;;;;;;;;;2208135;59;1923;-23
2023/11/21 01:35:26;;;;;;;;;;;;;;;;;;2206274;59;2214;-23
2023/11/21 01:37:57;;;;;;;;;;;;;;;;;;2207669;59;1944;-23
2023/11/21 01:40:28;;;;;;;;;;;;;;;;;;2205960;63;2187;-23
2023/11/21 01:42:59;;;;;;;;;;;;;;;;;;2207486;67;1746;-23
2023/11/21 01:45:31;;;;;;;;;;;;;;;;;;2203236;59;1849;-23
2023/11/21 01:48:02;;;;;;;;;;;;;;;;;;2206726;67;1743;-23
2023/11/21 01:50:33;;;;;;;;;;;;;;;;;;2206024;67;2190;-23
2023/11/21 01:53:04;;;;;;;;;;;;;;;;;;2207053;59;2325;-23
2023/11/21 01:55:35;;;;;;;;;;;;;;;;;;2199691;67;2246;-20
2023/11/21 01:58:07;;;;;;;;;;;;;;;;;;2206813;67;2221;-20
2023/11/21 02:00:38;;;;;;;;;;;;;;;;;;2206899;59;7031;-23
2023/11/21 02:03:10;;;;;;;;;;;;;;;;;;2207007;59;2631;-23
2023/11/21 02:05:40;;;;;;;;;;;;;;;;;;2206085;67;2348;-23
2023/11/21 02:08:10;;;;;;;;;;;;;;;;;;2207233;59;2990;-22
2023/11/21 02:10:41;;;;;;;;;;;;;;;;;;2205328;67;2151;-23
2023/11/21 02:13:11;;;;;;;;;;;;;;;;;;2206776;67;2049;-22
2023/11/21 02:15:41;;;;;;;;;;;;;;;;;;2205320;59;2055;-23
2023/11/21 02:18:11;;;;;;;;;;;;;;;;;;2207477;67;1770;-23
2023/11/21 02:20:42;;;;;;;;;;;;;;;;;;2205514;67;2097;-23
2023/11/21 02:23:13;;;;;;;;;;;;;;;;;;2206258;67;1983;-22
2023/11/21 02:25:43;;;;;;;;;;;;;;;;;;2205305;67;2038;-22
2023/11/21 02:28:15;;;;;;;;;;;;;;;;;;2208061;59;1962;-22
2023/11/21 02:30:46;;;;;;;;;;;;;;;;;;2206447;59;2457;-20
2023/11/21 02:33:16;;;;;;;;;;;;;;;;;;2206506;59;1878;-20
2023/11/21 02:35:47;;;;;;;;;;;;;;;;;;2205518;67;2145;-20
2023/11/21 02:38:17;;;;;;;;;;;;;;;;;;2205840;59;2000;-20
2023/11/21 02:40:48;;;;;;;;;;;;;;;;;;2206891;59;2128;-20
2023/11/21 02:43:19;;;;;;;;;;;;;;;;;;2205659;59;2350;-20
2023/11/21 02:45:49;;;;;;;;;;;;;;;;;;2206414;67;2109;-20
2023/11/21 02:48:19;;;;;;;;;;;;;;;;;;2202725;59;1871;-22
2023/11/21 02:50:50;;;;;;;;;;;;;;;;;;2205970;67;1860;-22
2023/11/21 02:53:20;;;;;;;;;;;;;;;;;;2205314;67;2451;-23
2023/11/21 02:55:51;;;;;;;;;;;;;;;;;;2206368;67;2067;-22
2023/11/21 02:58:22;;;;;;;;;;;;;;;;;;2201662;67;1862;-23
2023/11/21 03:00:54;;;;;;;;;;;;;;;;;;2206217;67;1949;-22
2023/11/21 03:03:24;;;;;;;;;;;;;;;;;;2205605;59;2150;-22
2023/11/21 03:05:54;;;;;;;;;;;;;;;;;;2206448;67;1909;-23
2023/11/21 03:08:25;;;;;;;;;;;;;;;;;;2204314;67;2047;-23
2023/11/21 03:10:55;;;;;;;;;;;;;;;;;;2205582;59;1827;-20
2023/11/21 03:13:26;;;;;;;;;;;;;;;;;;2206113;67;1780;-20
2023/11/21 03:15:56;;;;;;;;;;;;;;;;;;2206996;67;1832;-20
2023/11/21 03:18:29;;;;;;;;;;;;;;;;;;2204487;66;2211;-20
2023/11/21 03:20:59;;;;;;;;;;;;;;;;;;2205982;59;2063;-20
2023/11/21 03:23:29;;;;;;;;;;;;;;;;;;2206284;67;1733;-20
2023/11/21 03:26:00;;;;;;;;;;;;;;;;;;2206438;59;1990;-20
2023/11/21 03:28:30;;;;;;;;;;;;;;;;;;2205458;67;2387;-20
2023/11/21 03:31:00;;;;;;;;;;;;;;;;;;2206513;67;2652;-20
2023/11/21 03:33:31;;;;;;;;;;;;;;;;;;2205280;59;2173;-20
2023/11/21 03:36:01;;;;;;;;;;;;;;;;;;2206600;67;2041;-20
2023/11/21 03:38:31;;;;;;;;;;;;;;;;;;2205931;59;2075;-20
2023/11/21 03:41:02;;;;;;;;;;;;;;;;;;2206198;59;1998;-20
2023/11/21 03:43:32;;;;;;;;;;;;;;;;;;2206847;59;3356;-20
2023/11/21 03:46:03;;;;;;;;;;;;;;;;;;2206292;67;1983;-20
2023/11/21 03:48:33;;;;;;;;;;;;;;;;;;2206517;59;3098;-20
2023/11/21 03:51:04;;;;;;;;;;;;;;;;;;2206252;67;1899;-21
2023/11/21 03:53:35;;;;;;;;;;;;;;;;;;2206317;67;1854;-20
2023/11/21 03:56:05;;;;;;;;;;;;;;;;;;2206675;59;2779;-20
2023/11/21 03:58:36;;;;;;;;;;;;;;;;;;2206713;67;2068;-20
2023/11/21 04:01:06;;;;;;;;;;;;;;;;;;2206918;67;2510;-20
2023/11/21 04:03:36;;;;;;;;;;;;;;;;;;2206448;59;2308;-20
2023/11/21 04:06:07;;;;;;;;;;;;;;;;;;2207191;67;2178;-20
2023/11/21 04:08:37;;;;;;;;;;;;;;;;;;2206300;67;2097;-20
2023/11/21 04:11:07;;;;;;;;;;;;;;;;;;2207286;67;2157;-20
2023/11/21 04:13:38;;;;;;;;;;;;;;;;;;2206745;59;2538;-20
2023/11/21 04:16:09;;;;;;;;;;;;;;;;;;2206729;67;1751;-20
2023/11/21 04:18:39;;;;;;;;;;;;;;;;;;2204634;67;2144;-24
2023/11/21 04:21:16;;;;;;;;;;;;;;;;;;2205667;59;1929;-23
2023/11/21 04:23:48;;;;;;;;;;;;;;;;;;2203449;59;2134;-24
2023/11/21 04:26:19;;;;;;;;;;;;;;;;;;2205454;59;1858;-24
2023/11/21 04:28:49;;;;;;;;;;;;;;;;;;2206174;59;2290;-24
2023/11/21 04:31:20;;;;;;;;;;;;;;;;;;2207794;67;2051;-24
2023/11/21 04:33:50;;;;;;;;;;;;;;;;;;2206156;59;2678;-24
2023/11/21 04:36:20;;;;;;;;;;;;;;;;;;2206989;59;2360;-23
2023/11/21 04:38:51;;;;;;;;;;;;;;;;;;2205836;59;1916;-24
2023/11/21 04:41:21;;;;;;;;;;;;;;;;;;2207320;59;1901;-23
2023/11/21 04:43:51;;;;;;;;;;;;;;;;;;2206047;59;1977;-23
2023/11/21 04:46:21;;;;;;;;;;;;;;;;;;2210504;67;1769;-24
2023/11/21 04:48:52;;;;;;;;;;;;;;;;;;2209313;59;2096;-26
2023/11/21 04:51:22;;;;;;;;;;;;;;;;;;2209293;67;1957;-23
2023/11/21 04:53:53;;;;;;;;;;;;;;;;;;2206930;67;2246;-22
2023/11/21 04:56:23;;;;;;;;;;;;;;;;;;2206801;67;2295;-24
2023/11/21 04:58:54;;;;;;;;;;;;;;;;;;2206084;67;2447;-24
2023/11/21 05:01:32;;;;;;;;;;;;;;;;;;2205568;67;2665;-22
2023/11/21 05:04:02;;;;;;;;;;;;;;;;;;2206674;59;2205;-23
2023/11/21 05:06:33;;;;;;;;;;;;;;;;;;2205463;67;2347;-23
2023/11/21 05:09:03;;;;;;;;;;;;;;;;;;2205955;67;2026;-22
2023/11/21 05:11:34;;;;;;;;;;;;;;;;;;2205301;67;2224;-23
2023/11/21 05:14:05;;;;;;;;;;;;;;;;;;2205950;67;2479;-23
2023/11/21 05:16:36;;;;;;;;;;;;;;;;;;2205103;67;2011;-23
2023/11/21 05:19:06;;;;;;;;;;;;;;;;;;2206041;67;1988;-23
2023/11/21 05:21:36;;;;;;;;;;;;;;;;;;2205665;67;3078;-23
2023/11/21 05:24:07;;;;;;;;;;;;;;;;;;2205850;67;1909;-23
2023/11/21 05:26:38;;;;;;;;;;;;;;;;;;2204977;59;2369;-22
2023/11/21 05:29:10;;;;;;;;;;;;;;;;;;2206922;59;2305;-23
2023/11/21 05:31:40;;;;;;;;;;;;;;;;;;2206132;59;1992;-23
2023/11/21 05:34:11;;;;;;;;;;;;;;;;;;2206113;67;2477;-23
2023/11/21 05:36:43;;;;;;;;;;;;;;;;;;2205085;59;2439;-22
2023/11/21 05:39:13;;;;;;;;;;;;;;;;;;2207429;59;2701;-23
2023/11/21 05:41:44;;;;;;;;;;;;;;;;;;2205730;59;2889;-22
2023/11/21 05:44:14;;;;;;;;;;;;;;;;;;2206462;59;1878;-23
2023/11/21 05:46:45;;;;;;;;;;;;;;;;;;2205022;59;2498;-22
2023/11/21 05:49:16;;;;;;;;;;;;;;;;;;2204881;59;1833;-23
2023/11/21 05:51:46;;;;;;;;;;;;;;;;;;2204264;59;2326;-23
2023/11/21 05:54:17;;;;;;;;;;;;;;;;;;2204310;59;2584;-23
2023/11/21 05:56:47;;;;;;;;;;;;;;;;;;2203724;59;2665;-23
2023/11/21 05:59:17;;;;;;;;;;;;;;;;;;2205437;59;2326;-22
2023/11/21 06:01:47;;;;;;;;;;;;;;;;;;2204628;67;2156;-23
2023/11/21 06:04:18;;;;;;;;;;;;;;;;;;2204911;59;2358;-22
2023/11/21 06:06:48;;;;;;;;;;;;;;;;;;2204909;67;2046;-22
2023/11/21 06:09:22;;;;;;;;;;;;;;;;;;2204918;59;2742;-23
2023/11/21 06:11:52;;;;;;;;;;;;;;;;;;2204132;67;1837;-22
2023/11/21 06:14:23;;;;;;;;;;;;;;;;;;2205794;59;2339;-22
2023/11/21 06:16:53;;;;;;;;;;;;;;;;;;2204289;59;1794;-23
2023/11/21 06:19:23;;;;;;;;;;;;;;;;;;2204880;59;2160;-23
2023/11/21 06:21:54;;;;;;;;;;;;;;;;;;2200967;59;2195;-22
2023/11/21 06:24:24;;;;;;;;;;;;;;;;;;2206172;67;1938;-23
2023/11/21 06:26:54;;;;;;;;;;;;;;;;;;2204368;59;2279;-23
2023/11/21 06:29:24;;;;;;;;;;;;;;;;;;2206589;59;2432;-23
2023/11/21 06:31:55;;;;;;;;;;;;;;;;;;2205079;59;2445;-23
2023/11/21 06:34:27;;;;;;;;;;;;;;;;;;2206677;67;2807;-23
2023/11/21 06:36:57;;;;;;;;;;;;;;;;;;2205952;59;2805;-19
2023/11/21 06:39:27;;;;;;;;;;;;;;;;;;2207372;59;1911;-20
2023/11/21 06:42:00;;;;;;;;;;;;;;;;;;2205319;59;2338;-20
2023/11/21 06:44:30;;;;;;;;;;;;;;;;;;2206489;59;1757;-19
2023/11/21 06:47:00;;;;;;;;;;;;;;;;;;2205585;59;2560;-19
2023/11/21 06:49:31;;;;;;;;;;;;;;;;;;2206375;59;1915;-19
2023/11/21 06:52:03;;;;;;;;;;;;;;;;;;2207009;66;2523;-19
2023/11/21 06:54:33;;;;;;;;;;;;;;;;;;2204693;59;3039;-19
2023/11/21 06:57:04;;;;;;;;;;;;;;;;;;2205941;67;1893;-19
2023/11/21 06:59:34;;;;;;;;;;;;;;;;;;2203026;59;3390;-19
2023/11/21 07:02:07;;;;;;;;;;;;;;;;;;2206013;59;2370;-19
2023/11/21 07:04:37;;;;;;;;;;;;;;;;;;2205094;59;2289;-19
2023/11/21 07:07:07;;;;;;;;;;;;;;;;;;2205859;59;2868;-19
2023/11/21 07:09:38;;;;;;;;;;;;;;;;;;2205413;67;2404;-19
2023/11/21 07:12:08;;;;;;;;;;;;;;;;;;2206482;59;1869;-19
2023/11/21 07:14:41;;;;;;;;;;;;;;;;;;2205999;59;2771;-19
2023/11/21 07:17:11;;;;;;;;;;;;;;;;;;2206664;67;1903;-20
2023/11/21 07:19:42;;;;;;;;;;;;;;;;;;2205080;59;2651;-20
2023/11/21 07:22:13;;;;;;;;;;;;;;;;;;2206677;59;2180;-20
2023/11/21 07:24:44;;;;;;;;;;;;;;;;;;2203308;59;2915;-19
2023/11/21 07:27:14;;;;;;;;;;;;;;;;;;2205713;59;2663;-19
2023/11/21 07:29:45;;;;;;;;;;;;;;;;;;2205644;59;2549;-20
2023/11/21 07:32:15;;;;;;;;;;;;;;;;;;2205663;59;2970;-20
2023/11/21 07:34:46;;;;;;;;;;;;;;;;;;2205204;59;1863;-19
2023/11/21 07:37:16;;;;;;;;;;;;;;;;;;2206451;59;2534;-19
2023/11/21 07:39:46;;;;;;;;;;;;;;;;;;2208340;59;1999;-20
2023/11/21 07:42:17;;;;;;;;;;;;;;;;;;2205822;59;1911;-20
2023/11/21 07:44:48;;;;;;;;;;;;;;;;;;2205904;59;2517;-19
2023/11/21 07:47:18;;;;;;;;;;;;;;;;;;2205741;59;2224;-19
2023/11/21 07:49:48;;;;;;;;;;;;;;;;;;2204764;59;2717;-19
2023/11/21 07:52:21;;;;;;;;;;;;;;;;;;2206844;59;2362;-27
2023/11/21 07:54:51;;;;;;;;;;;;;;;;;;2203614;59;2522;-19
2023/11/21 07:57:21;;;;;;;;;;;;;;;;;;2204651;59;2595;-19
2023/11/21 07:59:53;;;;;;;;;;;;;;;;;;2204725;59;2534;-19
2023/11/21 08:02:24;;;;;;;;;;;;;;;;;;2206011;59;2375;-19
2023/11/21 08:04:56;;;;;;;;;;;;;;;;;;2204785;59;2550;-22
2023/11/21 08:07:27;;;;;;;;;;;;;;;;;;2204890;67;2789;-22
2023/11/21 08:09:58;;;;;;;;;;;;;;;;;;2203539;67;2338;-22
2023/11/21 08:12:28;;;;;;;;;;;;;;;;;;2204985;67;2067;-22
2023/11/21 08:14:59;;;;;;;;;;;;;;;;;;2204582;59;2486;-22
2023/11/21 08:17:31;;;;;;;;;;;;;;;;;;2203175;67;2537;-22
2023/11/21 08:20:03;;;;;;;;;;;;;;;;;;2205196;59;2662;-22
2023/11/21 08:22:33;;;;;;;;;;;;;;;;;;2205712;59;2473;-23
2023/11/21 08:25:04;;;;;;;;;;;;;;;;;;2205631;67;2467;-23
2023/11/21 08:27:34;;;;;;;;;;;;;;;;;;2205147;59;2743;-23
2023/11/21 08:30:05;;;;;;;;;;;;;;;;;;2206669;59;2728;-22
2023/11/21 08:32:35;;;;;;;;;;;;;;;;;;2205801;59;2632;-23
2023/11/21 08:35:07;;;;;;;;;;;;;;;;;;2206237;59;2507;-23
2023/11/21 08:37:38;;;;;;;;;;;;;;;;;;2205706;59;2169;-23
2023/11/21 08:40:09;;;;;;;;;;;;;;;;;;2206907;59;2014;-22
2023/11/21 08:42:39;;;;;;;;;;;;;;;;;;2204734;59;2547;-22
2023/11/21 08:45:09;;;;;;;;;;;;;;;;;;2205598;59;1830;-22
2023/11/21 08:47:40;;;;;;;;;;;;;;;;;;2205297;59;2507;-22
2023/11/21 08:50:11;;;;;;;;;;;;;;;;;;2204462;59;2528;-22
2023/11/21 08:52:42;;;;;;;;;;;;;;;;;;2204342;59;2795;-22
2023/11/21 08:55:12;;;;;;;;;;;;;;;;;;2205815;59;2242;-22
2023/11/21 08:57:44;;;;;;;;;;;;;;;;;;2205321;67;2683;-21
2023/11/21 09:00:16;;;;;;;;;;;;;;;;;;2204448;59;2511;-22
2023/11/21 09:02:47;;;;;;;;;;;;;;;;;;2203444;59;2322;-22
2023/11/21 09:05:18;;;;;;;;;;;;;;;;;;2204628;59;3893;-22
2023/11/21 09:07:49;;;;;;;;;;;;;;;;;;2204313;59;2676;-22
2023/11/21 09:10:20;;;;;;;;;;;;;;;;;;2207633;59;2566;-22
2023/11/21 09:12:51;;;;;;;;;;;;;;;;;;2206625;59;2439;-22
2023/11/21 09:15:22;;;;;;;;;;;;;;;;;;2205659;59;2072;-22
2023/11/21 09:17:52;;;;;;;;;;;;;;;;;;2205399;67;1861;-22
2023/11/21 09:20:23;;;;;;;;;;;;;;;;;;2206483;59;2477;-21
2023/11/21 09:22:54;;;;;;;;;;;;;;;;;;2205880;67;2458;-22
2023/11/21 09:25:24;;;;;;;;;;;;;;;;;;2205625;67;2269;-22
2023/11/21 09:27:54;;;;;;;;;;;;;;;;;;2205488;59;2321;-21
2023/11/21 09:30:24;;;;;;;;;;;;;;;;;;2206142;59;2198;-22
2023/11/21 09:32:55;;;;;;;;;;;;;;;;;;2205811;59;2226;-21
2023/11/21 09:35:25;;;;;;;;;;;;;;;;;;2206674;59;1787;-22
2023/11/21 09:37:55;;;;;;;;;;;;;;;;;;2204600;67;2401;-21
2023/11/21 09:40:26;;;;;;;;;;;;;;;;;;2204969;59;2271;-22
2023/11/21 09:42:57;;;;;;;;;;;;;;;;;;2204930;67;1853;-22
2023/11/21 09:45:28;;;;;;;;;;;;;;;;;;2205575;59;2293;-22
2023/11/21 09:47:59;;;;;;;;;;;;;;;;;;2206035;59;2307;-21
2023/11/21 09:50:31;;;;;;;;;;;;;;;;;;2205621;67;1926;-21
2023/11/21 09:53:17;;;;;;;;;;;;;;;;;;2204494;59;2847;-21
2023/11/21 09:55:51;;;;;;;;;;;;;;;;;;2205999;59;2372;-21
2023/11/21 09:58:22;;;;;;;;;;;;;;;;;;2206511;67;2278;-22
2023/11/21 10:00:53;;;;;;;;;;;;;;;;;;2206465;67;1932;-21
2023/11/21 10:03:24;;;;;;;;;;;;;;;;;;2206682;59;2290;-21
2023/11/21 10:05:56;;;;;;;;;;;;;;;;;;2204747;59;2616;-22
2023/11/21 10:08:28;;;;;;;;;;;;;;;;;;2206470;59;3329;-22
2023/11/21 10:10:59;;;;;;;;;;;;;;;;;;2206072;67;1861;-21
2023/11/21 10:13:31;;;;;;;;;;;;;;;;;;2205860;59;2787;-21
2023/11/21 10:16:05;;;;;;;;;;;;;;;;;;2205034;59;1931;-21
2023/11/21 10:18:38;;;;;;;;;;;;;;;;;;2205501;59;2069;-22
2023/11/21 10:21:09;;;;;;;;;;;;;;;;;;2205315;59;2603;-21
2023/11/21 10:23:39;;;;;;;;;;;;;;;;;;2205475;59;2534;-21
2023/11/21 10:26:16;;;;;;;;;;;;;;;;;;2205335;59;1991;-22
2023/11/21 10:28:59;;;;;;;;;;;;;;;;;;2204465;59;2252;-21
2023/11/21 10:31:32;;;;;;;;;;;;;;;;;;2205959;59;2006;-23
2023/11/21 10:34:15;;;;;;;;;;;;;;;;;;2205498;67;1874;-22
2023/11/21 10:36:46;;;;;;;;;;;;;;;;;;2204927;59;2621;-22
2023/11/21 10:39:20;;;;;;;;;;;;;;;;;;2207503;59;3053;-22
2023/11/21 10:41:50;;;;;;;;;;;;;;;;;;2206301;59;1724;-22
2023/11/21 10:44:22;;;;;;;;;;;;;;;;;;2207265;67;2762;-21
2023/11/21 10:46:56;;;;;;;;;;;;;;;;;;2208730;66;2499;-21
2023/11/21 10:49:27;;;;;;;;;;;;;;;;;;2207608;67;1920;-21
2023/11/21 10:51:57;;;;;;;;;;;;;;;;;;2205528;67;2406;-22
2023/11/21 10:54:28;;;;;;;;;;;;;;;;;;2206717;67;2027;-22
2023/11/21 10:57:00;;;;;;;;;;;;;;;;;;2205866;59;2631;-22
2023/11/21 10:59:31;;;;;;;;;;;;;;;;;;2204951;67;2034;-21
2023/11/21 11:02:03;;;;;;;;;;;;;;;;;;2206205;59;2305;-21
2023/11/21 11:04:33;;;;;;;;;;;;;;;;;;2207180;59;2549;-22
2023/11/21 11:07:05;;;;;;;;;;;;;;;;;;2203685;67;3183;-22
2023/11/21 11:09:35;;;;;;;;;;;;;;;;;;2202995;59;2876;-21
2023/11/21 11:12:06;;;;;;;;;;;;;;;;;;2203311;59;2828;-21
2023/11/21 11:14:36;;;;;;;;;;;;;;;;;;2204275;59;2653;-21
2023/11/21 11:17:08;;;;;;;;;;;;;;;;;;2204390;59;2096;-21
2023/11/21 11:19:39;;;;;;;;;;;;;;;;;;2206012;67;2332;-21
2023/11/21 11:22:28;;;;;;;;;;;;;;;;;;2202129;59;2214;-21
2023/11/21 11:25:13;;;;;;;;;;;;;;;;;;2206070;67;1850;-22
2023/11/21 11:27:43;;;;;;;;;;;;;;;;;;2202584;59;2824;-22
2023/11/21 11:30:14;;;;;;;;;;;;;;;;;;2205444;59;2353;-21
2023/11/21 11:32:56;;;;;;;;;;;;;;;;;;2204968;59;2705;-22
2023/11/21 11:35:47;;;;;;;;;;;;;;;;;;2204900;59;2436;-22
2023/11/21 11:38:17;;;;;;;;;;;;;;;;;;2205481;59;2067;-21
2023/11/21 11:40:52;;;;;;;;;;;;;;;;;;2204538;59;2197;-22
2023/11/21 11:43:26;;;;;;;;;;;;;;;;;;2206070;59;1682;-22
2023/11/21 11:45:58;;;;;;;;;;;;;;;;;;2205690;59;2166;-22
2023/11/21 11:48:29;;;;;;;;;;;;;;;;;;2205879;67;2690;-21
2023/11/21 11:51:09;;;;;;;;;;;;;;;;;;2204501;59;2560;-22
2023/11/21 11:53:46;;;;;;;;;;;;;;;;;;2205552;67;1786;-22
2023/11/21 11:56:23;;;;;;;;;;;;;;;;;;2203615;59;2503;-22
2023/11/21 11:58:57;;;;;;;;;;;;;;;;;;2205658;67;2064;-22
2023/11/21 12:01:29;;;;;;;;;;;;;;;;;;2207279;59;2725;-22
2023/11/21 12:04:33;;;;;;;;;;;;;;;;;;2206439;59;2308;-22
2023/11/21 12:07:04;;;;;;;;;;;;;;;;;;2204479;59;2558;-22
2023/11/21 12:09:37;;;;;;;;;;;;;;;;;;2205356;59;2945;-22
2023/11/21 12:12:08;;;;;;;;;;;;;;;;;;2205741;59;2544;-22
2023/11/21 12:14:38;;;;;;;;;;;;;;;;;;2206003;67;2334;-22
2023/11/21 12:17:09;;;;;;;;;;;;;;;;;;2206058;62;2384;-19
2023/11/21 12:19:39;;;;;;;;;;;;;;;;;;2206153;59;3448;-19
2023/11/21 12:22:10;;;;;;;;;;;;;;;;;;2208629;59;1892;-21
2023/11/21 12:24:41;;;;;;;;;;;;;;;;;;2206763;59;2160;-19
2023/11/21 12:27:14;;;;;;;;;;;;;;;;;;2204747;59;2625;-19
2023/11/21 12:29:44;;;;;;;;;;;;;;;;;;2206636;59;2270;-21
2023/11/21 12:32:18;;;;;;;;;;;;;;;;;;2204545;59;1801;-21
2023/11/21 12:34:49;;;;;;;;;;;;;;;;;;2205436;59;2433;-19
2023/11/21 12:37:19;;;;;;;;;;;;;;;;;;2205964;59;2548;-21
2023/11/21 12:39:49;;;;;;;;;;;;;;;;;;2206178;59;2976;-19
2023/11/21 12:42:20;;;;;;;;;;;;;;;;;;2206468;59;2441;-21
2023/11/21 12:45:15;;;;;;;;;;;;;;;;;;2202691;59;2469;-21
2023/11/21 12:47:56;;;;;;;;;;;;;;;;;;2205374;59;2043;-19
2023/11/21 12:50:31;;;;;;;;;;;;;;;;;;2206363;59;1969;-19
2023/11/21 12:53:02;;;;;;;;;;;;;;;;;;2206530;59;2649;-21
2023/11/21 12:55:36;;;;;;;;;;;;;;;;;;2202838;59;2300;-21
2023/11/21 12:58:09;;;;;;;;;;;;;;;;;;2204892;59;2830;-19
2023/11/21 13:00:41;;;;;;;;;;;;;;;;;;2205536;59;2505;-21
2023/11/21 13:03:15;;;;;;;;;;;;;;;;;;2206295;67;2452;-19
2023/11/21 13:05:50;;;;;;;;;;;;;;;;;;2204681;59;2356;-19
2023/11/21 13:08:22;;;;;;;;;;;;;;;;;;2205117;59;2120;-21
2023/11/21 13:10:54;;;;;;;;;;;;;;;;;;2204111;59;3255;-19
2023/11/21 13:13:27;;;;;;;;;;;;;;;;;;2205443;67;2498;-19
2023/11/21 13:16:04;;;;;;;;;;;;;;;;;;2201307;59;2353;-21
2023/11/21 13:18:34;;;;;;;;;;;;;;;;;;2205295;67;2213;-19
2023/11/21 13:21:11;;;;;;;;;;;;;;;;;;2205809;59;2488;-19
2023/11/21 13:23:42;;;;;;;;;;;;;;;;;;2205703;59;2978;-19
2023/11/21 13:26:14;;;;;;;;;;;;;;;;;;2204916;67;2167;-19
2023/11/21 13:28:47;;;;;;;;;;;;;;;;;;2201164;59;2645;-19
2023/11/21 13:31:30;;;;;;;;;;;;;;;;;;2205018;59;3519;-21
2023/11/21 13:34:05;;;;;;;;;;;;;;;;;;2204598;59;2100;-19
2023/11/21 13:36:35;;;;;;;;;;;;;;;;;;2205315;59;2604;-21
2023/11/21 13:39:08;;;;;;;;;;;;;;;;;;2206243;59;1751;-19
2023/11/21 13:41:38;;;;;;;;;;;;;;;;;;2205689;59;2537;-21
2023/11/21 13:44:26;;;;;;;;;;;;;;;;;;2202084;59;2213;-21
2023/11/21 13:46:58;;;;;;;;;;;;;;;;;;2205158;67;1826;-19
2023/11/21 13:49:31;;;;;;;;;;;;;;;;;;2205724;67;2524;-19
2023/11/21 13:52:03;;;;;;;;;;;;;;;;;;2206507;59;1904;-19
2023/11/21 13:54:33;;;;;;;;;;;;;;;;;;2205986;67;2798;-19
2023/11/21 13:57:05;;;;;;;;;;;;;;;;;;2205595;67;1900;-21
2023/11/21 13:59:36;;;;;;;;;;;;;;;;;;2206245;59;2001;-21
2023/11/21 14:02:17;;;;;;;;;;;;;;;;;;2206244;59;2542;-21
2023/11/21 14:07:31;;;;;;;;;;;;;;;;;;2204717;67;1740;-21
2023/11/21 14:10:03;;;;;;;;;;;;;;;;;;2205991;66;2273;-19
2023/11/21 14:12:36;;;;;;;;;;;;;;;;;;2205818;59;1891;-21
2023/11/21 14:15:09;;;;;;;;;;;;;;;;;;2206447;67;2343;-19
2023/11/21 14:17:40;;;;;;;;;;;;;;;;;;2206348;67;2044;-21
2023/11/21 14:20:20;;;;;;;;;;;;;;;;;;2204300;67;2535;-21
2023/11/21 14:22:52;;;;;;;;;;;;;;;;;;2205668;67;2240;-21
2023/11/21 14:25:22;;;;;;;;;;;;;;;;;;2204911;59;3533;-21
2023/11/21 14:27:52;;;;;;;;;;;;;;;;;;2206132;59;2087;-19
2023/11/21 14:30:23;;;;;;;;;;;;;;;;;;2205179;59;2234;-19
2023/11/21 14:32:53;;;;;;;;;;;;;;;;;;2206873;59;2049;-19
2023/11/21 14:35:24;;;;;;;;;;;;;;;;;;2204247;59;1968;-21
2023/11/21 14:37:55;;;;;;;;;;;;;;;;;;2205644;59;1902;-21
2023/11/21 14:40:25;;;;;;;;;;;;;;;;;;2205861;59;2216;-21
2023/11/21 14:42:57;;;;;;;;;;;;;;;;;;2205908;67;1909;-19
2023/11/21 14:45:28;;;;;;;;;;;;;;;;;;2205461;59;2169;-21
2023/11/21 14:53:15;;;;;;;;;;;;;;;;;;2205218;67;1966;-19
2023/11/21 14:55:56;;;;;;;;;;;;;;;;;;2206253;59;2953;-19
2023/11/21 14:58:26;;;;;;;;;;;;;;;;;;2204798;59;2782;-19
2023/11/21 15:01:00;;;;;;;;;;;;;;;;;;2206180;67;2076;-21
2023/11/21 15:08:57;;;;;;;;;;;;;;;;;;2206020;67;1952;-19
2023/11/21 15:11:30;;;;;;;;;;;;;;;;;;2205834;59;2267;-20
2023/11/21 15:14:05;;;;;;;;;;;;;;;;;;2204193;59;1812;-19
2023/11/21 15:16:40;;;;;;;;;;;;;;;;;;2205505;59;2292;-20
2023/11/21 15:19:12;;;;;;;;;;;;;;;;;;2205050;59;2380;-21
2023/11/21 15:21:44;;;;;;;;;;;;;;;;;;2205868;59;2236;-20
2023/11/21 15:24:14;;;;;;;;;;;;;;;;;;2205521;59;1803;-19
2023/11/21 15:26:44;;;;;;;;;;;;;;;;;;2204407;59;1968;-21
2023/11/21 15:29:16;;;;;;;;;;;;;;;;;;2204983;59;2108;-19
2023/11/21 15:31:48;;;;;;;;;;;;;;;;;;2206569;59;1856;-21
2023/11/21 15:34:18;;;;;;;;;;;;;;;;;;2205138;59;1914;-21
2023/11/21 15:36:52;;;;;;;;;;;;;;;;;;2205051;59;2096;-21
2023/11/21 15:39:28;;;;;;;;;;;;;;;;;;2204858;59;2714;-19
2023/11/21 15:42:00;;;;;;;;;;;;;;;;;;2206334;59;2028;-20
2023/11/21 15:44:33;;;;;;;;;;;;;;;;;;2205917;59;2550;-21
2023/11/21 15:47:04;;;;;;;;;;;;;;;;;;2204885;67;2586;-19
2023/11/21 15:49:36;;;;;;;;;;;;;;;;;;2207386;59;2555;-19
2023/11/21 15:52:09;;;;;;;;;;;;;;;;;;2205710;67;1920;-19
2023/11/21 15:54:40;;;;;;;;;;;;;;;;;;2205886;59;1891;-19
2023/11/21 15:57:10;;;;;;;;;;;;;;;;;;2205714;59;1894;-20
2023/11/21 15:59:42;;;;;;;;;;;;;;;;;;2205290;59;2147;-21
2023/11/21 16:02:15;;;;;;;;;;;;;;;;;;2205788;59;2274;-19
2023/11/21 16:04:46;;;;;;;;;;;;;;;;;;2206871;67;2915;-20
2023/11/21 16:07:18;;;;;;;;;;;;;;;;;;2204663;59;1867;-20
2023/11/21 16:09:49;;;;;;;;;;;;;;;;;;2206007;59;2345;-20
2023/11/21 16:12:21;;;;;;;;;;;;;;;;;;2203510;59;2168;-19
2023/11/21 16:14:51;;;;;;;;;;;;;;;;;;2203762;59;2569;-21
2023/11/21 16:17:21;;;;;;;;;;;;;;;;;;2205300;67;2027;-21
2023/11/21 16:19:52;;;;;;;;;;;;;;;;;;2205606;67;1946;-20
2023/11/21 16:22:23;;;;;;;;;;;;;;;;;;2204144;67;2612;-21
2023/11/21 16:24:53;;;;;;;;;;;;;;;;;;2205325;59;2748;-19
2023/11/21 16:27:24;;;;;;;;;;;;;;;;;;2204910;59;1926;-21
2023/11/21 16:29:54;;;;;;;;;;;;;;;;;;2205813;59;2404;-20
2023/11/21 16:32:25;;;;;;;;;;;;;;;;;;2204921;59;2609;-19
2023/11/21 16:34:56;;;;;;;;;;;;;;;;;;2204429;59;2604;-19
2023/11/21 16:37:27;;;;;;;;;;;;;;;;;;2203773;59;2172;-21
2023/11/21 16:39:58;;;;;;;;;;;;;;;;;;2206333;59;1916;-21
2023/11/21 16:42:30;;;;;;;;;;;;;;;;;;2205671;59;3031;-19
2023/11/21 16:45:00;;;;;;;;;;;;;;;;;;2206373;59;2143;-19
2023/11/21 16:47:33;;;;;;;;;;;;;;;;;;2205151;63;2034;-19
2023/11/21 16:50:04;;;;;;;;;;;;;;;;;;2205324;67;1830;-19
2023/11/21 16:52:34;;;;;;;;;;;;;;;;;;2204535;59;2015;-19
2023/11/21 16:55:05;;;;;;;;;;;;;;;;;;2205850;67;2075;-30
2023/11/21 16:57:38;;;;;;;;;;;;;;;;;;2205805;59;1986;-19
2023/11/21 17:00:12;;;;;;;;;;;;;;;;;;2206122;67;2386;-19
2023/11/21 17:02:42;;;;;;;;;;;;;;;;;;2206347;59;2244;-19
2023/11/21 17:05:12;;;;;;;;;;;;;;;;;;2204725;67;2287;-19
2023/11/21 17:07:43;;;;;;;;;;;;;;;;;;2206036;59;2007;-20
2023/11/21 17:10:14;;;;;;;;;;;;;;;;;;2204761;59;2039;-20
2023/11/21 17:12:44;;;;;;;;;;;;;;;;;;2203224;59;2660;-20
2023/11/21 17:15:16;;;;;;;;;;;;;;;;;;2204669;67;2277;-20
2023/11/21 17:17:46;;;;;;;;;;;;;;;;;;2204701;59;2252;-19
2023/11/21 17:20:17;;;;;;;;;;;;;;;;;;2203837;59;2091;-19
2023/11/21 17:22:47;;;;;;;;;;;;;;;;;;2203824;59;3588;-20
2023/11/21 17:25:18;;;;;;;;;;;;;;;;;;2199473;59;1886;-19
2023/11/21 17:27:50;;;;;;;;;;;;;;;;;;2205770;59;2051;-19
2023/11/21 17:30:20;;;;;;;;;;;;;;;;;;2204517;59;3400;-21
2023/11/21 17:32:51;;;;;;;;;;;;;;;;;;2202564;59;2343;-19
2023/11/21 17:35:23;;;;;;;;;;;;;;;;;;2201730;59;1935;-21
2023/11/21 17:37:54;;;;;;;;;;;;;;;;;;2201216;59;2420;-21
2023/11/21 17:40:26;;;;;;;;;;;;;;;;;;2201294;59;1995;-21
2023/11/21 17:42:56;;;;;;;;;;;;;;;;;;2204249;59;1901;-21
2023/11/21 17:45:27;;;;;;;;;;;;;;;;;;2204282;59;1825;-20
2023/11/21 17:47:57;;;;;;;;;;;;;;;;;;2204704;59;1879;-20
2023/11/21 17:50:28;;;;;;;;;;;;;;;;;;2205071;59;1890;-19